• Join FlightAware (Why Join?)
  • Login
  • US Flag 
03:14PM EDT


 

Airport Tracker/Info


-or-


 

Live Flight TrackerFlight Track Log ✈ EJA583 ✈ 13-Sep-2013 ✈ KMAF - KORH

Flight Track Log - Related Links

Times and Time Zones

All times are in EDT time to prevent confusion due to time zone crossing. See the EJA583 flight status page for this flight to view local times or setup timezone preferences in your user account.

Time Position Orientation Groundspeed Altitude Reporting Facility
EDT Latitude Longitude Course Direction KTS MPH feet Rate Location/Type
02:41PM 32.0025 -102.0506 75° East 298 343 10,800  Level Fort Worth Center
02:42PM 32.0467 -101.9842 52° Northeast 272 313 13,400 2,220 Climbing Fort Worth Center
02:43PM 32.0644 -101.8944 77° East 252 290 15,300 1,740 Climbing Fort Worth Center
02:44PM 32.2239 -101.6660 79° East  Level Estimated
02:44PM 32.0828 -101.7922 78° East 279 321 16,900  Level Fort Worth Center
02:45PM 32.2799 -101.5584 74° East  Level Estimated
02:45PM 32.1069 -101.6906 74° East 301 346 18,500  Level Fort Worth Center
02:46PM 32.3358 -101.4507 75° East  Level Estimated
02:46PM 32.1294 -101.5836 76° East 326 375 20,100  Level Fort Worth Center
02:47PM 32.1539 -101.4719 75° East 338 389 21,800 1,560 Climbing Fort Worth Center
02:48PM 32.1739 -101.3747 76° East 338 389 23,300 1,560 Climbing Fort Worth Center
02:49PM 32.1964 -101.2553 77° East 338 389 25,000 1,500 Climbing Fort Worth Center
02:50PM 32.2225 -101.1458 74° East 338 389 26,300 1,140 Climbing Fort Worth Center
02:51PM 32.2447 -101.0314 77° East 338 389 27,300 960 Climbing Fort Worth Center
02:52PM 32.2667 -100.9144 77° East 349 402 28,300 1,020 Climbing Fort Worth Center
02:53PM 32.2908 -100.7950 77° East 361 415 29,400 1,020 Climbing Fort Worth Center
02:54PM 32.3169 -100.6753 75° East 366 421 30,400 960 Climbing Fort Worth Center
02:55PM 32.3411 -100.5533 77° East 372 428 31,400 960 Climbing Fort Worth Center
02:56PM 32.3647 -100.4336 77° East 372 428 32,400 1,020 Climbing Fort Worth Center
02:57PM 32.3928 -100.3117 75° East 372 428 33,500 1,140 Climbing Fort Worth Center
02:58PM 32.4453 -100.2050 60° Northeast 372 428 34,700 1,200 Climbing Fort Worth Center
02:59PM 32.5019 -100.0983 58° Northeast 372 428 35,900 1,140 Climbing Fort Worth Center
03:00PM 32.5522 -99.9939 60° Northeast 372 428 37,000 1,080 Climbing Fort Worth Center
03:01PM 32.6083 -99.8969 55° Northeast 373 429 38,100 1,080 Climbing Fort Worth Center
03:02PM 32.6647 -99.7922 57° Northeast 384 442 39,200 900 Climbing Fort Worth Center
03:03PM 32.7169 -99.6778 62° Northeast 378 435 39,900 840 Climbing Fort Worth Center
03:04PM 32.7708 -99.5753 58° Northeast 371 427 40,900 540 Climbing Fort Worth Center
03:05PM 32.8269 -99.4678 58° Northeast 371 427 41,000  Climbing Fort Worth Center
03:06PM 32.8850 -99.3553 58° Northeast 381 438 41,000  Level Fort Worth Center
03:07PM 32.9453 -99.2353 59° Northeast 394 453 41,000  Level Fort Worth Center
03:08PM 33.0075 -99.1203 57° Northeast 406 467 41,000  Level Fort Worth Center
03:09PM 33.0675 -98.9975 60° Northeast 412 474 41,000  Level Fort Worth Center
03:10PM 33.1275 -98.8794 59° Northeast 412 474 41,000  Level Fort Worth Center
03:11PM 33.1872 -98.7589 59° Northeast 417 480 41,000  Level Fort Worth Center
03:12PM 33.2572 -98.6506 52° Northeast 417 480 41,000  Level Fort Worth Center
03:13PM 33.3353 -98.5522 46° Northeast 411 473 41,000  Level Fort Worth Center
03:14PM 33.4114 -98.4536 47° Northeast 406 467 41,000  Level Fort Worth Center
03:15PM 33.4853 -98.3475 50° Northeast 401 461 41,000  Level Fort Worth Center
03:16PM 33.5697 -98.2311 49° Northeast 412 474 41,000  Level Fort Worth Center
03:17PM 33.6289 -98.1119 59° Northeast 417 480 41,000  Level Fort Worth Center
03:18PM 33.6858 -97.9925 60° Northeast 417 480 41,000  Level Fort Worth Center
03:19PM 33.7467 -97.8706 59° Northeast 412 474 41,000  Level Fort Worth Center
03:20PM 33.8036 -97.7483 61° Northeast 417 480 41,000  Level Fort Worth Center
03:21PM 33.8622 -97.6261 60° Northeast 417 480 41,000  Level Fort Worth Center
03:22PM 33.9125 -97.5186 61° Northeast 412 474 41,000  Level Fort Worth Center
03:23PM 33.9708 -97.3983 60° Northeast 412 474 41,000  Level Fort Worth Center
03:24PM 34.0272 -97.2756 61° Northeast 412 474 41,000  Level Fort Worth Center
03:25PM 34.0833 -97.1528 61° Northeast 412 474 41,000  Level Fort Worth Center
03:26PM 34.1394 -97.0269 62° Northeast 400 460 41,000  Level Fort Worth Center
03:27PM 34.1911 -96.9164 61° Northeast 407 468 41,000  Level Fort Worth Center
03:28PM 34.2469 -96.7956 61° Northeast 407 468 41,000  Level Fort Worth Center
03:29PM 34.3028 -96.6769 60° Northeast 402 463 41,000  Level Fort Worth Center
03:30PM 34.3583 -96.5556 61° Northeast 402 463 41,000  Level Fort Worth Center
03:31PM 34.4136 -96.4342 61° Northeast 402 463 41,000  Level Fort Worth Center
03:32PM 34.4711 -96.3103 61° Northeast 402 463 41,000  Level Fort Worth Center
03:33PM 34.5283 -96.1858 61° Northeast 408 470 41,000  Level Fort Worth Center
03:34PM 34.5833 -96.0642 61° Northeast 408 470 41,000  Level Fort Worth Center
03:35PM 34.6383 -95.9447 61° Northeast 413 475 41,000  Level Fort Worth Center
03:36PM 34.6933 -95.8200 62° Northeast 413 475 41,000  Level Fort Worth Center
03:39PM 34.8386 -95.5058 61° Northeast 418 481 41,000  Level Memphis Center
03:40PM 34.8956 -95.3828 61° Northeast 412 474 41,000  Level Memphis Center
03:41PM 34.9486 -95.2592 62° Northeast 406 467 41,000  Level Memphis Center
03:42PM 35.0056 -95.1333 61° Northeast 406 467 41,000  Level Memphis Center
03:43PM 35.0606 -95.0069 62° Northeast 406 467 41,000  Level Memphis Center
03:44PM 35.1172 -94.8833 61° Northeast 406 467 41,000  Level Memphis Center
03:45PM 35.1719 -94.7542 63° Northeast 411 473 41,000  Level Memphis Center
03:46PM 35.2197 -94.6397 63° Northeast 411 473 41,000  Level Memphis Center
03:47PM 35.2719 -94.5153 63° Northeast 411 473 41,000  Level Memphis Center
03:48PM 35.3303 -94.3883 61° Northeast 416 479 41,000  Level Memphis Center
03:49PM 35.3844 -94.2611 62° Northeast 421 484 41,000  Level Memphis Center
03:50PM 35.4425 -94.1339 61° Northeast 421 484 41,000  Level Memphis Center
03:51PM 35.4942 -94.0086 63° Northeast 421 484 41,000  Level Memphis Center
03:52PM 35.5481 -93.8808 63° Northeast 421 484 41,000  Level Memphis Center
03:53PM 35.6081 -93.7456 61° Northeast 416 479 41,000  Level Memphis Center
03:54PM 35.6614 -93.6175 63° Northeast 416 479 41,000  Level Memphis Center
03:55PM 35.7147 -93.4917 62° Northeast 416 479 41,000  Level Memphis Center
03:56PM 35.7681 -93.3658 62° Northeast 416 479 41,000  Level Memphis Center
03:57PM 35.8231 -93.2372 62° Northeast 416 479 41,000  Level Memphis Center
03:58PM 35.8761 -93.1111 63° Northeast 422 486 41,000  Level Memphis Center
03:59PM 35.9289 -92.9794 64° Northeast 422 486 41,000  Level Memphis Center
04:00PM 35.9817 -92.8503 63° Northeast 422 486 41,000  Level Memphis Center
04:01PM 36.0342 -92.7236 63° Northeast 422 486 41,000  Level Memphis Center
04:02PM 36.0864 -92.5942 63° Northeast 422 486 41,000  Level Memphis Center
04:03PM 36.1408 -92.4669 62° Northeast 422 486 41,000  Level Memphis Center
04:04PM 36.1950 -92.3372 63° Northeast 422 486 41,000  Level Memphis Center
04:05PM 36.2472 -92.2072 63° Northeast 416 479 41,000  Level Memphis Center
04:06PM 36.2989 -92.0772 64° Northeast 416 479 41,000  Level Memphis Center
04:07PM 36.3508 -91.9519 63° Northeast 416 479 41,000  Level Memphis Center
04:08PM 36.4022 -91.8214 64° Northeast 416 479 41,000  Level Memphis Center
04:09PM 36.4433 -91.7061 66° East 416 479 41,000  Level Memphis Center
04:10PM 36.5053 -91.5625 62° Northeast 416 479 41,000  Level Memphis Center
04:11PM 36.5564 -91.4289 65° Northeast 421 484 41,000  Level Memphis Center
04:12PM 36.6094 -91.2978 63° Northeast 421 484 41,000  Level Memphis Center
04:13PM 36.6625 -91.1639 64° Northeast 421 484 41,000  Level Memphis Center
04:14PM 36.7111 -91.0428 63° Northeast 421 484 41,000  Level Memphis Center
04:15PM 36.7639 -90.9086 64° Northeast 421 484 41,000  Level Memphis Center
04:16PM 36.8186 -90.7717 63° Northeast 421 484 41,000  Level Memphis Center
04:17PM 36.8772 -90.6133 65° Northeast 425 489 41,000  Level Kansas City Center
04:18PM 36.9278 -90.4803 65° Northeast 424 488 41,000  Level Kansas City Center
04:19PM 36.9794 -90.3472 64° Northeast 425 489 41,000  Level Kansas City Center
04:20PM 37.0294 -90.2153 65° Northeast 422 486 41,000  Level Kansas City Center
04:21PM 37.0714 -90.1178 62° Northeast 421 484 41,000  Level Memphis Center
04:22PM 37.1231 -89.9822 64° Northeast 416 479 41,000  Level Memphis Center
04:23PM 37.1725 -89.8519 64° Northeast 416 479 41,000  Level Memphis Center
04:24PM 37.2197 -89.7214 66° East 416 479 41,000  Level Memphis Center
04:25PM 37.2711 -89.5881 64° Northeast 416 479 41,000  Level Memphis Center
04:26PM 37.3244 -89.4414 65° Northeast 416 479 41,000  Level Memphis Center
04:27PM 37.3733 -89.3103 65° Northeast 421 484 41,000  Level Memphis Center
04:28PM 37.4222 -89.1767 65° Northeast 421 484 41,000  Level Memphis Center
04:29PM 37.4708 -89.0425 65° Northeast 421 484 41,000  Level Memphis Center
04:29PM 37.4864 -88.9956 67° East 415 478 41,000  Level Kansas City Center
04:30PM 37.5436 -88.8347 66° East 417 480 41,000  Level Kansas City Center
04:32PM 37.6111 -88.6511 65° Northeast 419 482 41,000  Level Indianapolis Center
04:33PM 37.6592 -88.5183 65° Northeast 417 480 41,000  Level Indianapolis Center
04:34PM 37.7172 -88.3575 65° Northeast 419 482 41,000  Level Indianapolis Center
04:35PM 37.7653 -88.2242 65° Northeast 416 479 41,000  Level Indianapolis Center
04:36PM 37.8125 -88.0903 66° East 416 479 41,000  Level Indianapolis Center
04:37PM 37.8594 -87.9556 66° East 417 480 41,000  Level Indianapolis Center
04:38PM 37.9075 -87.8225 65° Northeast 415 478 41,000  Level Indianapolis Center
04:39PM 37.9678 -87.6981 58° Northeast 414 476 41,000  Level Indianapolis Center
04:40PM 38.0403 -87.5869 50° Northeast 408 470 41,000  Level Indianapolis Center
04:41PM 38.1269 -87.4517 51° Northeast 408 470 41,000  Level Indianapolis Center
04:42PM 38.1986 -87.3389 51° Northeast 409 471 41,000  Level Indianapolis Center
04:43PM 38.2717 -87.2228 51° Northeast 407 468 41,000  Level Indianapolis Center
04:44PM 38.3428 -87.1083 52° Northeast 412 474 41,000  Level Indianapolis Center
04:45PM 38.4136 -86.9964 51° Northeast 409 471 41,000  Level Indianapolis Center
04:46PM 38.4908 -86.8736 51° Northeast 410 472 41,000  Level Indianapolis Center
04:47PM 38.5614 -86.7594 52° Northeast 407 468 41,000  Level Indianapolis Center
04:48PM 38.6319 -86.6458 51° Northeast 406 467 41,000  Level Indianapolis Center
04:49PM 38.7036 -86.5314 51° Northeast 410 472 41,000  Level Indianapolis Center
04:50PM 38.7750 -86.4164 51° Northeast 411 473 41,000  Level Indianapolis Center
04:52PM 38.8597 -86.2778 52° Northeast 411 473 41,000  Level Indianapolis Center
04:53PM 38.9189 -86.1783 53° Northeast 411 473 41,000  Level Indianapolis Center
04:54PM 39.0028 -86.0431 51° Northeast 409 471 41,000  Level Indianapolis Center
04:55PM 39.0717 -85.9297 52° Northeast 407 468 41,000  Level Indianapolis Center
04:56PM 39.1397 -85.8169 52° Northeast 403 464 41,000  Level Indianapolis Center
04:57PM 39.2072 -85.7036 52° Northeast 403 464 41,000  Level Indianapolis Center
04:58PM 39.2747 -85.5903 52° Northeast 403 464 41,000  Level Indianapolis Center
04:59PM 39.3581 -85.4561 51° Northeast 402 463 41,000  Level Indianapolis Center
05:00PM 39.4306 -85.3492 49° Northeast 400 460 41,000  Level Indianapolis Center
05:01PM 39.5028 -85.2403 49° Northeast 401 461 41,000  Level Indianapolis Center
05:02PM 39.5753 -85.1328 49° Northeast 399 459 41,000  Level Indianapolis Center
05:03PM 39.6461 -85.0256 49° Northeast 394 453 41,000  Level Indianapolis Center
05:04PM 39.7308 -84.8983 49° Northeast 391 450 41,000  Level Indianapolis Center
05:05PM 39.7992 -84.7942 49° Northeast 386 444 41,000  Level Indianapolis Center
05:06PM 39.8689 -84.6886 49° Northeast 385 443 41,000  Level Indianapolis Center
05:07PM 39.9381 -84.5847 49° Northeast 381 438 41,000  Level Indianapolis Center
05:08PM 40.0067 -84.4794 50° Northeast 380 437 41,000  Level Indianapolis Center
05:09PM 40.0883 -84.3539 50° Northeast 379 436 41,000  Level Indianapolis Center
05:10PM 40.1558 -84.2472 50° Northeast 379 436 41,000  Level Indianapolis Center
05:11PM 40.2236 -84.1431 50° Northeast 375 432 41,000  Level Indianapolis Center
05:12PM 40.2908 -84.0375 50° Northeast 374 430 41,000  Level Indianapolis Center
05:13PM 40.3556 -83.9281 52° Northeast 377 434 41,000  Level Indianapolis Center
05:14PM 40.4197 -83.8189 52° Northeast 377 434 41,000  Level Indianapolis Center
05:15PM 40.4831 -83.7089 53° Northeast 376 433 41,000  Level Indianapolis Center
05:16PM 40.5603 -83.5761 53° Northeast 379 436 41,000  Level Indianapolis Center
05:17PM 40.6228 -83.4656 53° Northeast 378 435 41,000  Level Indianapolis Center
05:18PM 40.6825 -83.3503 56° Northeast 381 438 41,000  Level Indianapolis Center
05:19PM 40.7250 -83.2122 68° East 402 463 41,000  Level Indianapolis Center
05:20PM 40.7667 -83.0789 68° East 403 464 41,000  Level Indianapolis Center
05:22PM 40.8150 -82.9197 68° East 399 459 41,000  Level Indianapolis Center
05:23PM 40.8586 -82.7819 67° East 404 465 41,000  Level Indianapolis Center
05:23PM 40.8856 -82.6925 68° East 390 449 41,000  Level Cleveland Center
05:24PM 40.9278 -82.5536 68° East 395 455 41,000  Level Cleveland Center
05:25PM 40.9694 -82.4200 68° East 395 455 41,000  Level Cleveland Center
05:26PM 41.0114 -82.2808 68° East 397 457 41,000  Level Cleveland Center
05:27PM 41.0508 -82.1442 69° East 397 457 41,000  Level Cleveland Center
05:28PM 41.0922 -82.0075 68° East 397 457 41,000  Level Cleveland Center
05:29PM 41.1442 -81.8514 66° East 397 457 41,000  Level Cleveland Center
05:30PM 41.1831 -81.7142 69° East 402 463 41,000  Level Cleveland Center
05:31PM 41.2219 -81.5714 70° East 407 468 41,000  Level Cleveland Center
05:32PM 41.2628 -81.4339 68° East 407 468 41,000  Level Cleveland Center
05:33PM 41.2969 -81.3072 70° East 407 468 41,000  Level Cleveland Center
05:34PM 41.3394 -81.1694 68° East 407 468 41,000  Level Cleveland Center
05:35PM 41.3817 -81.0147 70° East 407 468 41,000  Level Cleveland Center
05:36PM 41.4217 -80.8711 70° East 407 468 41,000  Level Cleveland Center
05:37PM 41.4617 -80.7356 68° East 402 463 41,000  Level Cleveland Center
05:38PM 41.5033 -80.5886 69° East 407 468 41,000  Level Cleveland Center
05:39PM 41.5431 -80.4500 69° East 407 468 41,000  Level Cleveland Center
05:40PM 41.5783 -80.3222 70° East 407 468 41,000  Level Cleveland Center
05:41PM 41.6175 -80.1803 70° East 407 468 41,000  Level Cleveland Center
05:42PM 41.6564 -80.0383 70° East 407 468 41,000  Level Cleveland Center
05:43PM 41.6994 -79.8822 70° East 407 468 41,000  Level Cleveland Center
05:44PM 41.7400 -79.7400 69° East 412 474 41,000  Level Cleveland Center
05:45PM 41.7744 -79.6114 70° East 412 474 41,000  Level Cleveland Center
05:46PM 41.8169 -79.4658 69° East 412 474 41,000  Level Cleveland Center
05:47PM 41.8550 -79.3175 71° East 412 474 41,000  Level Cleveland Center
05:48PM 41.9011 -79.1547 69° East 412 474 41,000  Level Cleveland Center
05:49PM 41.9328 -79.0172 73° East 412 474 41,000  Level Cleveland Center
05:50PM 41.9722 -78.8711 70° East 412 474 41,000  Level Cleveland Center
05:51PM 42.0117 -78.7192 71° East 417 480 41,000  Level Cleveland Center
05:52PM 42.0528 -78.5697 70° East 417 480 41,000  Level Cleveland Center
05:53PM 42.0919 -78.4203 71° East 417 480 41,000  Level Cleveland Center
05:54PM 42.1283 -78.2650 72° East 423 487 41,000  Level Cleveland Center
05:55PM 42.1731 -78.1008 70° East 423 487 41,000  Level Cleveland Center
05:56PM 42.2111 -77.9481 71° East 423 487 41,000  Level Cleveland Center
05:57PM 42.2514 -77.7919 71° East 428 493 41,000  Level Cleveland Center
05:58PM 42.2892 -77.6414 71° East 428 493 41,000  Level Cleveland Center
05:59PM 42.3231 -77.5022 72° East 428 493 41,000  Level Cleveland Center
06:00PM 42.3608 -77.3514 71° East 428 493 41,000  Level Cleveland Center
06:02PM 42.4364 -77.0433 72° East 430 495 41,000  Level Boston Center
06:03PM 42.4553 -76.8814 81° East 430 495 41,000  Level Boston Center
06:04PM 42.4739 -76.7250 81° East 425 489 41,000  Level Boston Center
06:05PM 42.4900 -76.5656 82° East 425 489 41,000  Level Boston Center
06:06PM 42.5064 -76.4033 82° East 425 489 41,000  Level Boston Center
06:07PM 42.5097 -76.2400 88° East 425 489 41,000 -780 Level Boston Center
06:08PM 42.5075 -76.0594 91° East 431 496 39,500 -1,500 Descending Boston Center
06:09PM 42.5064 -75.8903 90° East 441 507 38,000 -1,500 Descending Boston Center
06:10PM 42.5011 -75.7211 92° East 446 513 36,500 -1,560 Descending Boston Center
06:11PM 42.4994 -75.5547 91° East 441 507 35,000 -2,160 Descending Boston Center
06:12PM 42.4956 -75.3828 92° East 441 507 32,300 -3,120 Descending Boston Center
06:13PM 42.4917 -75.2108 92° East 447 514 28,800 -3,240 Descending Boston Center
06:14PM 42.4872 -75.0417 92° East 452 520 25,800 -3,000 Descending Boston Center
06:15PM 42.4828 -74.8725 92° East 452 520 22,800 -2,580 Descending Boston Center
06:16PM 42.4797 -74.7092 91° East 446 513 20,700 -1,800 Descending Boston Center
06:17PM 42.4808 -74.5486 89° East 436 502 19,200 -900 Descending Boston Center
06:18PM 42.4839 -74.3856 88° East 436 502 19,000 -420 Descending Boston Center
06:19PM 42.4842 -74.2306 90° East 420 483 18,400 -1,140 Descending Boston Center
06:20PM 42.4697 -74.0811 97° East 402 463 16,800 -1,500 Descending Boston Center
06:21PM 42.4467 -73.9539 104° East 389 448 15,500 -1,260 Descending Boston Center
06:22PM 42.4153 -73.8011 106° East 384 442 14,400 -1,020 Descending Boston Center
06:23PM 42.3894 -73.6797 106° East 377 434 13,500 -1,080 Descending Boston Center
06:24PM 42.3597 -73.5358 106° East 363 418 12,300 -1,140 Descending Boston Center
06:25PM 42.3358 -73.4175 105° East 368 423 11,300 -960 Descending Boston Center
06:25PM 42.3358 -73.4175 105° East 363 418 11,400 -300 Climbing Boston Center
06:26PM 42.3183 -73.2628 99° East 367 422 11,000 -660 Descending Boston Center
06:27PM 42.3169 -73.1364 91° East 362 417 10,200 -780 Descending Boston Center
06:27PM 42.3189 -73.1447 288° West 368 423 10,300 -1,800 Climbing Boston Center
06:28PM 42.3114 -73.0183 95° East 299 344 8,400 -1,920 Descending Boston Center
06:28PM 42.3114 -73.0128 90° East 339 390 8,400 -1,560 Level Boston Center
06:29PM 42.3097 -72.9144 91° East 307 353 6,800 -1,680 Descending Boston Center
06:30PM 42.3039 -72.7994 94° East 290 334 5,100 -960 Descending Boston Center
06:31PM 42.3000 -72.7067 93° East 276 318 5,000 -120 Descending Boston Center
06:31PM 42.3000 -72.7039 90° East 272 313 5,000 -420 Level Boston Center
06:32PM 42.2961 -72.6086 93° East 265 305 4,600 -600 Descending Boston Center
06:32PM 42.2961 -72.5944 90° East 267 307 4,400 -1,500 Descending Boston Center
06:33PM 42.2919 -72.5019 93° East 259 298 3,100 -1,320 Descending Boston Center
06:33PM 42.2900 -72.4989 131° Southeast 251 289 3,100 -120 Level Boston Center
06:34PM 42.2900 -72.4147 90° East 253 291 3,000 -120 Descending Boston Center
06:34PM 42.2858 -72.4036 117° Southeast 259 298 3,000  Level Boston Center
06:35PM 42.2858 -72.3053 90° East 253 291 3,000  Level Boston Center
06:35PM 42.2817 -72.3056 183° South 263 303 3,000  Level Boston Center
06:36PM 42.2814 -72.2211 90° East 253 291 3,000  Level Boston Center
06:37PM 42.2792 -72.1903 96° East 264 304 3,000  Level Boston Center
06:37PM 42.2750 -72.1089 94° East 258 297 3,000  Level Boston Center
06:38PM 42.2747 -72.0894 91° East 268 308 3,000 -120 Level Boston Center
06:38PM 42.2683 -72.0219 97° East 258 297 2,900 -300 Descending Boston Center
06:39PM 42.2578 -71.9969 120° Southeast 236 272 2,700 -360 Descending Boston Center
06:40PM 42.2367 -71.9269 112° Southeast 222 255 2,500 -60 Descending Boston Center
06:41PM 42.2197 -71.8542 107° East 210 242 2,600 -300 Climbing Boston Center
06:42PM 42.2444 -71.8258 40° Northeast 108 124 1,900 -720 Descending Boston Center
06:42PM 42.2656 -71.8508 319° Northwest 99 114 1,300 -480 Descending Boston Center
06:44PM 42.2636 -71.8931 266° West 102 117 1,000 -300 Descending Boston Center